createdAt,value
2018-04-18T00:00:00.185Z,13.98
2018-04-18T00:01:00.162Z,14.01
2018-04-18T00:02:00.144Z,14.01
2018-04-18T00:03:00.121Z,14.04
2018-04-18T00:04:00.107Z,13.98
2018-04-18T00:05:00.092Z,13.98
2018-04-18T00:06:00.060Z,14.01
2018-04-18T00:07:00.043Z,14.01
2018-04-18T00:08:00.021Z,13.91
2018-04-18T00:08:59.999Z,13.97
2018-04-18T00:09:59.979Z,13.88
2018-04-18T00:10:59.969Z,13.93
2018-04-18T00:11:59.942Z,13.93
2018-04-18T00:12:59.921Z,13.88
2018-04-18T00:14:00.099Z,13.83
2018-04-18T00:14:59.884Z,13.91
2018-04-18T00:15:59.857Z,13.91
2018-04-18T00:16:59.845Z,13.91
2018-04-18T00:17:59.822Z,13.80
2018-04-18T00:18:59.795Z,13.72
2018-04-18T00:19:59.794Z,13.61
2018-04-18T00:20:59.810Z,13.53
2018-04-18T00:21:59.739Z,13.47
2018-04-18T00:22:59.713Z,13.40
2018-04-18T00:23:59.694Z,13.38
2018-04-18T00:24:59.673Z,13.42
2018-04-18T00:25:59.650Z,13.54
2018-04-18T00:26:59.630Z,13.49
2018-04-18T00:27:59.610Z,13.54
2018-04-18T00:28:59.590Z,13.61
2018-04-18T00:29:59.566Z,13.53
2018-04-18T00:30:59.546Z,13.47
2018-04-18T00:31:59.533Z,13.51
2018-04-18T00:32:59.506Z,13.49
2018-04-18T00:33:59.511Z,13.45
2018-04-18T00:34:59.467Z,13.53
2018-04-18T00:35:59.443Z,13.46
2018-04-18T00:36:59.434Z,13.43
2018-04-18T00:37:59.403Z,13.43
2018-04-18T00:38:59.383Z,13.46
2018-04-18T00:39:59.363Z,13.49
2018-04-18T00:40:59.340Z,13.42
2018-04-18T00:41:59.323Z,13.42
2018-04-18T00:42:59.300Z,13.36
2018-04-18T00:43:59.279Z,13.36
2018-04-18T00:44:59.256Z,13.27
2018-04-18T00:45:59.275Z,13.26
2018-04-18T00:46:59.220Z,13.35
2018-04-18T00:47:59.200Z,13.42
2018-04-18T00:48:59.188Z,13.39
2018-04-18T00:49:59.151Z,13.49
2018-04-18T00:50:59.131Z,13.46
2018-04-18T00:51:59.113Z,13.46
2018-04-18T00:52:59.091Z,13.38
2018-04-18T00:53:59.081Z,13.45
2018-04-18T00:54:59.054Z,13.42
2018-04-18T00:55:59.031Z,13.45
2018-04-18T00:56:59.004Z,13.38
2018-04-18T00:57:59.002Z,13.38
2018-04-18T00:58:58.979Z,13.21
2018-04-18T00:59:58.945Z,13.20
2018-04-18T01:00:58.926Z,13.21
2018-04-18T01:01:58.948Z,13.21
2018-04-18T01:02:58.935Z,13.13
2018-04-18T01:03:58.861Z,13.13
2018-04-18T01:04:58.842Z,13.16
2018-04-18T01:05:58.821Z,13.14
2018-04-18T01:06:58.798Z,13.09
2018-04-18T01:07:58.778Z,13.19
2018-04-18T01:08:58.761Z,13.14
2018-04-18T01:09:58.733Z,13.09
2018-04-18T01:10:58.714Z,13.17
2018-04-18T01:12:34.447Z,13.11
2018-04-18T01:12:58.674Z,13.01
2018-04-18T01:13:58.652Z,13.08
2018-04-18T01:14:58.635Z,13.02
2018-04-18T01:15:58.619Z,13.05
2018-04-18T01:16:58.592Z,13.06
2018-04-18T01:17:58.565Z,13.08
2018-04-18T01:18:59.859Z,13.05
2018-04-18T01:19:58.575Z,13.02
2018-04-18T01:20:58.557Z,13.04
2018-04-18T01:21:58.562Z,13.02
2018-04-18T01:22:58.567Z,12.93
2018-04-18T01:23:58.577Z,12.87
2018-04-18T01:24:58.542Z,12.84
2018-04-18T01:25:58.528Z,12.86
2018-04-18T01:26:58.454Z,12.87
2018-04-18T01:27:58.359Z,12.80
2018-04-18T01:28:58.341Z,12.77
2018-04-18T01:29:58.321Z,12.87
2018-04-18T01:30:58.298Z,12.91
2018-04-18T01:31:58.273Z,12.77
2018-04-18T01:32:58.256Z,12.77
2018-04-18T01:33:58.233Z,12.76
2018-04-18T01:34:58.237Z,12.66
2018-04-18T01:35:58.197Z,12.63
2018-04-18T01:36:58.166Z,12.71
2018-04-18T01:37:58.147Z,12.69
2018-04-18T01:38:58.126Z,12.76
2018-04-18T01:39:59.014Z,12.71
2018-04-18T01:40:58.085Z,12.71
2018-04-18T01:41:58.063Z,12.79
2018-04-18T01:43:12.942Z,12.73
2018-04-18T01:43:58.023Z,12.79
2018-04-18T01:44:58.008Z,12.72
2018-04-18T01:45:57.979Z,12.69
2018-04-18T01:46:57.959Z,12.62
2018-04-18T01:47:57.935Z,12.69
2018-04-18T01:48:57.914Z,12.69
2018-04-18T01:49:57.897Z,12.76
2018-04-18T01:50:57.884Z,12.84
2018-04-18T01:51:57.853Z,12.83
2018-04-18T01:52:57.841Z,12.86
2018-04-18T01:53:57.817Z,12.90
2018-04-18T01:54:57.788Z,12.83
2018-04-18T01:55:57.770Z,12.88
2018-04-18T01:56:57.750Z,12.87
2018-04-18T01:57:57.728Z,12.90
2018-04-18T01:58:57.703Z,12.84
2018-04-18T01:59:57.684Z,12.87
2018-04-18T02:00:58.089Z,12.90
2018-04-18T02:01:57.642Z,12.86
2018-04-18T02:02:57.619Z,12.87
2018-04-18T02:03:57.603Z,12.87
2018-04-18T02:04:57.575Z,12.90
2018-04-18T02:05:57.553Z,12.84
2018-04-18T02:06:57.531Z,12.88
2018-04-18T02:07:57.512Z,12.90
2018-04-18T02:08:57.492Z,12.88
2018-04-18T02:09:57.475Z,12.88
2018-04-18T02:10:57.450Z,12.90
2018-04-18T02:11:57.425Z,12.84
2018-04-18T02:12:57.402Z,12.88
2018-04-18T02:13:57.386Z,12.86
2018-04-18T02:14:57.362Z,12.79
2018-04-18T02:15:57.347Z,12.77
2018-04-18T02:16:57.320Z,12.80
2018-04-18T02:17:57.303Z,12.79
2018-04-18T02:18:57.277Z,12.84
2018-04-18T02:19:57.259Z,12.73
2018-04-18T02:20:57.236Z,12.83
2018-04-18T02:21:57.231Z,12.68
2018-04-18T02:22:57.192Z,12.68
2018-04-18T02:23:57.171Z,12.66
2018-04-18T02:24:57.160Z,12.66
2018-04-18T02:25:57.175Z,12.66
2018-04-18T02:26:57.110Z,12.66
2018-04-18T02:27:57.087Z,12.65
2018-04-18T02:28:57.070Z,12.58
2018-04-18T02:29:57.055Z,12.47
2018-04-18T02:30:57.025Z,12.43
2018-04-18T02:31:57.008Z,12.32
2018-04-18T02:32:56.982Z,12.32
2018-04-18T02:33:56.957Z,12.36
2018-04-18T02:34:56.940Z,12.33
2018-04-18T02:35:56.937Z,12.23
2018-04-18T02:36:56.894Z,12.21
2018-04-18T02:37:56.871Z,12.26
2018-04-18T02:38:56.849Z,12.23
2018-04-18T02:39:56.831Z,12.22
2018-04-18T02:40:56.807Z,12.15
2018-04-18T02:41:56.784Z,12.25
2018-04-18T02:42:56.763Z,12.32
2018-04-18T02:43:56.742Z,12.15
2018-04-18T02:44:56.722Z,12.38
2018-04-18T02:45:56.698Z,12.36
2018-04-18T02:46:56.685Z,12.32
2018-04-18T02:47:56.656Z,12.48
2018-04-18T02:48:56.653Z,12.29
2018-04-18T02:49:56.650Z,12.38
2018-04-18T02:50:56.641Z,12.33
2018-04-18T02:51:56.663Z,12.38
2018-04-18T02:52:56.664Z,12.28
2018-04-18T02:53:56.640Z,12.32
2018-04-18T02:54:56.616Z,12.43
2018-04-18T02:55:56.627Z,12.29
2018-04-18T02:56:56.582Z,12.22
2018-04-18T02:57:56.437Z,12.25
2018-04-18T02:58:56.416Z,12.23
2018-04-18T02:59:56.407Z,12.15
2018-04-18T03:00:56.374Z,12.18
2018-04-18T03:01:56.353Z,12.21
2018-04-18T03:02:56.332Z,12.03
2018-04-18T03:03:56.325Z,12.13
2018-04-18T03:04:56.288Z,12.08
2018-04-18T03:05:56.302Z,12.22
2018-04-18T03:06:56.286Z,12.14
2018-04-18T03:07:56.283Z,12.13
2018-04-18T03:08:56.204Z,12.10
2018-04-18T03:09:56.181Z,12.05
2018-04-18T03:10:56.159Z,12.13
2018-04-18T03:11:56.145Z,12.17
2018-04-18T03:12:56.120Z,12.05
2018-04-18T03:13:56.093Z,12.11
2018-04-18T03:14:56.088Z,12.04
2018-04-18T03:15:56.056Z,11.89
2018-04-18T03:16:56.032Z,11.89
2018-04-18T03:17:56.018Z,11.89
2018-04-18T03:18:55.988Z,11.85
2018-04-18T03:19:55.969Z,11.79
2018-04-18T03:20:55.944Z,11.76
2018-04-18T03:21:55.921Z,11.85
2018-04-18T03:22:55.900Z,11.69
2018-04-18T03:23:55.880Z,11.69
2018-04-18T03:24:55.857Z,11.61
2018-04-18T03:25:55.835Z,11.52
2018-04-18T03:26:55.821Z,11.55
2018-04-18T03:27:55.791Z,11.40
2018-04-18T03:28:55.773Z,11.38
2018-04-18T03:29:55.748Z,11.38
2018-04-18T03:30:55.744Z,11.31
2018-04-18T03:31:55.709Z,11.34
2018-04-18T03:32:55.688Z,11.31
2018-04-18T03:33:55.661Z,11.30
2018-04-18T03:34:55.641Z,11.27
2018-04-18T03:35:55.649Z,11.25
2018-04-18T03:36:55.594Z,11.25
2018-04-18T03:37:55.579Z,11.28
2018-04-18T03:38:55.557Z,11.30
2018-04-18T03:39:55.528Z,11.37
2018-04-18T03:40:55.507Z,11.38
2018-04-18T03:41:55.496Z,11.38
2018-04-18T03:42:55.461Z,11.37
2018-04-18T03:43:55.443Z,11.58
2018-04-18T03:44:55.417Z,11.56
2018-04-18T03:45:55.400Z,11.70
2018-04-18T03:46:55.417Z,11.64
2018-04-18T03:47:55.387Z,11.69
2018-04-18T03:48:55.331Z,11.70
2018-04-18T03:49:55.307Z,11.70
2018-04-18T03:50:55.287Z,11.69
2018-04-18T03:51:55.266Z,11.77
2018-04-18T03:52:55.241Z,11.69
2018-04-18T03:53:55.222Z,11.59
2018-04-18T03:54:55.198Z,11.51
2018-04-18T03:55:55.177Z,11.51
2018-04-18T03:56:55.188Z,11.37
2018-04-18T03:57:55.144Z,11.36
2018-04-18T03:58:55.114Z,11.40
2018-04-18T03:59:55.100Z,11.37
2018-04-18T04:00:55.065Z,11.38
2018-04-18T04:01:55.041Z,11.48
2018-04-18T04:02:55.025Z,11.45
2018-04-18T04:03:55.000Z,11.48
2018-04-18T04:04:54.973Z,11.43
2018-04-18T04:05:54.958Z,11.27
2018-04-18T04:06:54.932Z,11.28
2018-04-18T04:07:54.909Z,11.12
2018-04-18T04:08:54.889Z,11.08
2018-04-18T04:09:54.866Z,11.05
2018-04-18T04:10:54.847Z,11.05
2018-04-18T04:11:54.820Z,11.01
2018-04-18T04:12:54.805Z,11.08
2018-04-18T04:13:54.836Z,11.22
2018-04-18T04:14:54.756Z,11.25
2018-04-18T04:15:54.731Z,11.31
2018-04-18T04:16:54.714Z,11.27
2018-04-18T04:17:54.724Z,11.31
2018-04-18T04:18:54.748Z,11.31
2018-04-18T04:19:54.747Z,11.25
2018-04-18T04:20:54.724Z,11.33
2018-04-18T04:21:54.727Z,11.37
2018-04-18T04:22:54.717Z,11.41
2018-04-18T04:23:54.617Z,11.31
2018-04-18T04:24:54.615Z,11.38
2018-04-18T04:25:54.513Z,11.41
2018-04-18T04:26:54.502Z,11.38
2018-04-18T04:27:54.517Z,11.33
2018-04-18T04:28:54.450Z,11.41
2018-04-18T04:29:54.428Z,11.41
2018-04-18T04:30:54.400Z,11.43
2018-04-18T04:31:54.385Z,11.31
2018-04-18T04:32:54.354Z,11.27
2018-04-18T04:33:54.339Z,11.20
2018-04-18T04:34:54.312Z,11.15
2018-04-18T04:35:54.299Z,11.08
2018-04-18T04:36:54.269Z,11.03
2018-04-18T04:37:54.252Z,11.03
2018-04-18T04:38:54.233Z,11.08
2018-04-18T04:39:54.217Z,10.97
2018-04-18T04:40:54.178Z,10.97
2018-04-18T04:41:54.158Z,10.93
2018-04-18T04:42:54.133Z,10.95
2018-04-18T04:44:00.933Z,10.98
2018-04-18T04:44:54.194Z,10.93
2018-04-18T04:45:54.067Z,10.91
2018-04-18T04:46:54.059Z,10.87
2018-04-18T04:47:54.026Z,10.80
2018-04-18T04:48:54.001Z,10.83
2018-04-18T04:49:53.989Z,10.86
2018-04-18T04:50:53.962Z,10.86
2018-04-18T04:51:53.937Z,10.86
2018-04-18T04:52:53.941Z,10.94
2018-04-18T04:53:53.897Z,10.98
2018-04-18T04:54:53.880Z,10.95
2018-04-18T04:55:53.847Z,11.01
2018-04-18T04:56:53.822Z,11.04
2018-04-18T04:57:53.803Z,11.13
2018-04-18T04:58:53.782Z,11.20
2018-04-18T04:59:53.797Z,11.11
2018-04-18T05:00:53.734Z,11.09
2018-04-18T05:01:53.711Z,11.09
2018-04-18T05:02:53.686Z,11.13
2018-04-18T05:03:53.679Z,11.13
2018-04-18T05:04:53.668Z,11.13
2018-04-18T05:05:53.623Z,11.12
2018-04-18T05:06:53.633Z,11.15
2018-04-18T05:07:53.620Z,11.20
2018-04-18T05:08:53.554Z,11.28
2018-04-18T05:09:53.532Z,11.38
2018-04-18T05:10:53.510Z,11.37
2018-04-18T05:11:53.489Z,11.45
2018-04-18T05:12:53.471Z,11.54
2018-04-18T05:13:53.450Z,11.52
2018-04-18T05:14:53.430Z,11.58
2018-04-18T05:15:53.399Z,11.66
2018-04-18T05:16:53.376Z,11.71
2018-04-18T05:17:53.371Z,11.73
2018-04-18T05:18:53.333Z,11.67
2018-04-18T05:19:53.321Z,11.71
2018-04-18T05:20:53.290Z,11.79
2018-04-18T05:21:53.267Z,11.84
2018-04-18T05:22:53.252Z,11.84
2018-04-18T05:23:53.223Z,11.77
2018-04-18T05:24:53.200Z,11.74
2018-04-18T05:25:53.190Z,11.84
2018-04-18T05:26:53.160Z,11.85
2018-04-18T05:27:53.137Z,11.96
2018-04-18T05:28:53.110Z,11.87
2018-04-18T05:29:53.096Z,11.87
2018-04-18T05:30:53.119Z,11.88
2018-04-18T05:31:53.047Z,11.93
2018-04-18T05:32:53.024Z,11.97
2018-04-18T05:33:53.003Z,11.96
2018-04-18T05:34:52.982Z,11.95
2018-04-18T05:35:52.959Z,11.97
2018-04-18T05:36:52.935Z,12.03
2018-04-18T05:37:52.920Z,11.95
2018-04-18T05:38:54.212Z,11.95
2018-04-18T05:39:52.879Z,11.97
2018-04-18T05:40:52.872Z,11.95
2018-04-18T05:41:52.891Z,11.93
2018-04-18T05:42:52.851Z,11.91
2018-04-18T05:43:52.851Z,11.97
2018-04-18T05:44:52.868Z,11.93
2018-04-18T05:45:52.811Z,11.89
2018-04-18T05:46:52.801Z,11.97
2018-04-18T05:47:52.806Z,11.95
2018-04-18T05:48:52.806Z,12.10
2018-04-18T05:49:52.784Z,12.04
2018-04-18T05:50:52.698Z,12.11
2018-04-18T05:51:52.610Z,12.23
2018-04-18T05:52:52.594Z,12.26
2018-04-18T05:53:52.600Z,12.17
2018-04-18T05:54:52.548Z,12.22
2018-04-18T05:55:52.521Z,12.33
2018-04-18T05:56:52.500Z,12.38
2018-04-18T05:57:52.477Z,12.32
2018-04-18T05:58:52.457Z,12.38
2018-04-18T05:59:53.780Z,12.36
2018-04-18T06:00:52.415Z,12.35
2018-04-18T06:01:52.394Z,12.36
2018-04-18T06:02:52.380Z,12.44
2018-04-18T06:03:52.348Z,12.51
2018-04-18T06:04:52.324Z,12.54
2018-04-18T06:05:52.304Z,12.55
2018-04-18T06:06:52.283Z,12.61
2018-04-18T06:07:52.263Z,12.68
2018-04-18T06:08:52.242Z,12.76
2018-04-18T06:09:52.218Z,12.73
2018-04-18T06:10:52.196Z,12.76
2018-04-18T06:11:52.173Z,12.81
2018-04-18T06:12:52.153Z,12.80
2018-04-18T06:13:52.140Z,12.88
2018-04-18T06:16:26.993Z,12.86
2018-04-18T06:17:26.833Z,12.91
2018-04-18T06:19:23.424Z,12.81
2018-04-18T06:20:22.867Z,12.87
2018-04-18T06:22:19.047Z,12.81
2018-04-18T06:23:18.851Z,12.71
2018-04-18T06:25:14.970Z,12.77
2018-04-18T06:26:14.837Z,12.76
2018-04-18T06:27:14.963Z,12.71
2018-04-18T06:28:14.881Z,12.77
2018-04-18T06:29:14.840Z,12.66
2018-04-18T06:30:14.769Z,12.84
2018-04-18T06:31:14.824Z,12.87
2018-04-18T06:32:14.744Z,12.80
2018-04-18T06:33:14.646Z,12.77
2018-04-18T06:34:14.615Z,12.80
2018-04-18T06:35:14.596Z,12.84
2018-04-18T06:36:14.591Z,12.86
2018-04-18T06:37:14.555Z,12.87
2018-04-18T06:38:14.540Z,12.88
2018-04-18T06:39:14.510Z,12.91
2018-04-18T06:40:15.636Z,12.91
2018-04-18T06:41:14.467Z,12.93
2018-04-18T06:42:14.449Z,12.84
2018-04-18T06:43:14.435Z,12.93
2018-04-18T06:44:14.401Z,13.01
2018-04-18T06:45:14.379Z,13.02
2018-04-18T06:46:14.359Z,13.01
2018-04-18T06:47:14.335Z,13.08
2018-04-18T06:48:14.315Z,13.04
2018-04-18T06:49:14.304Z,13.16
2018-04-18T06:50:14.277Z,13.26
2018-04-18T06:51:14.263Z,13.19
2018-04-18T06:52:14.231Z,13.23
2018-04-18T06:53:14.211Z,13.36
2018-04-18T06:54:14.245Z,13.30
2018-04-18T06:55:14.164Z,13.42
2018-04-18T06:56:14.143Z,13.42
2018-04-18T06:57:14.124Z,13.46
2018-04-18T06:58:14.107Z,13.45
2018-04-18T06:59:14.081Z,13.46
2018-04-18T07:00:14.065Z,13.36
2018-04-18T07:01:14.600Z,13.36
2018-04-18T07:02:14.020Z,13.45
2018-04-18T07:03:13.995Z,13.45
2018-04-18T07:04:13.976Z,13.36
2018-04-18T07:05:13.957Z,13.40
2018-04-18T07:06:13.960Z,13.39
2018-04-18T07:07:13.957Z,13.40
2018-04-18T07:08:13.892Z,13.38
2018-04-18T07:09:13.869Z,13.43
2018-04-18T07:10:13.852Z,13.46
2018-04-18T07:11:13.847Z,13.43
2018-04-18T07:12:13.815Z,13.46
2018-04-18T07:13:13.785Z,13.42
2018-04-18T07:14:13.760Z,13.58
2018-04-18T07:15:13.742Z,13.53
2018-04-18T07:16:13.720Z,13.65
2018-04-18T07:17:13.700Z,13.64
2018-04-18T07:18:13.683Z,13.72
2018-04-18T07:19:13.657Z,13.76
2018-04-18T07:20:13.639Z,13.79
2018-04-18T07:21:13.614Z,13.85
2018-04-18T07:22:13.803Z,13.85
2018-04-18T07:23:13.612Z,13.88
2018-04-18T07:24:13.554Z,14.00
2018-04-18T07:25:13.534Z,14.03
2018-04-18T07:26:13.513Z,14.05
2018-04-18T07:27:13.487Z,14.12
2018-04-18T07:28:13.466Z,14.05
2018-04-18T07:29:13.443Z,14.21
2018-04-18T07:30:13.439Z,14.22
2018-04-18T07:31:13.413Z,14.27
2018-04-18T07:32:13.390Z,14.36
2018-04-18T07:33:13.362Z,14.33
2018-04-18T07:34:13.340Z,14.36
2018-04-18T07:35:13.319Z,14.37
2018-04-18T07:36:13.304Z,14.44
2018-04-18T07:37:13.280Z,14.55
2018-04-18T07:38:13.259Z,14.53
2018-04-18T07:39:13.239Z,14.61
2018-04-18T07:40:13.290Z,14.73
2018-04-18T07:41:13.193Z,14.67
2018-04-18T07:42:13.173Z,14.74
2018-04-18T07:43:13.151Z,14.78
2018-04-18T07:44:13.133Z,14.74
2018-04-18T07:45:13.114Z,14.87
2018-04-18T07:46:13.094Z,14.89
2018-04-18T07:47:13.128Z,14.96
2018-04-18T07:48:13.048Z,14.92
2018-04-18T07:49:13.074Z,15.01
2018-04-18T07:50:13.008Z,15.05
2018-04-18T07:51:12.983Z,15.05
2018-04-18T07:52:12.991Z,15.03
2018-04-18T07:53:12.952Z,15.19
2018-04-18T07:54:12.937Z,15.23
2018-04-18T07:55:12.969Z,15.27
2018-04-18T07:56:12.942Z,15.30
2018-04-18T07:57:12.934Z,15.32
2018-04-18T07:58:12.929Z,15.29
2018-04-18T07:59:12.965Z,15.36
2018-04-18T08:00:12.933Z,15.38
2018-04-18T08:01:12.897Z,15.47
2018-04-18T08:02:12.817Z,15.52
2018-04-18T08:03:12.864Z,15.48
2018-04-18T08:04:12.718Z,15.65
2018-04-18T08:05:12.697Z,15.70
2018-04-18T08:06:12.679Z,15.68
2018-04-18T08:07:12.660Z,15.69
2018-04-18T08:08:12.641Z,15.80
2018-04-18T08:09:12.631Z,15.83
2018-04-18T08:10:12.597Z,15.78
2018-04-18T08:11:12.575Z,15.87
2018-04-18T08:12:12.557Z,15.90
2018-04-18T08:13:12.533Z,16.03
2018-04-18T08:14:12.516Z,15.99
2018-04-18T08:15:12.507Z,15.96
2018-04-18T08:16:12.472Z,16.14
2018-04-18T08:17:12.454Z,16.08
2018-04-18T08:18:12.454Z,16.21
2018-04-18T08:19:12.414Z,16.22
2018-04-18T08:20:12.398Z,16.36
2018-04-18T08:21:12.375Z,16.37
2018-04-18T08:22:12.371Z,16.52
2018-04-18T08:23:12.335Z,16.58
2018-04-18T08:24:12.318Z,16.67
2018-04-18T08:25:12.294Z,16.72
2018-04-18T08:26:12.285Z,16.77
2018-04-18T08:27:12.257Z,16.94
2018-04-18T08:28:12.233Z,17.06
2018-04-18T08:29:12.231Z,17.10
2018-04-18T08:30:12.195Z,17.22
2018-04-18T08:31:12.181Z,17.39
2018-04-18T08:32:12.203Z,17.50
2018-04-18T08:33:12.134Z,17.66
2018-04-18T08:34:12.118Z,17.97
2018-04-18T08:35:12.094Z,18.33
2018-04-18T08:36:12.079Z,18.56
2018-04-18T08:37:12.056Z,18.97
2018-04-18T08:38:12.041Z,19.35
2018-04-18T08:39:12.021Z,19.68
2018-04-18T08:40:12.003Z,20.11
2018-04-18T08:41:11.977Z,20.42
2018-04-18T08:42:11.959Z,20.74
2018-04-18T08:43:11.936Z,21.05
2018-04-18T08:44:11.919Z,21.41
2018-04-18T08:45:11.900Z,21.84
2018-04-18T08:46:11.880Z,22.16
2018-04-18T08:47:11.857Z,22.53
2018-04-18T08:48:11.847Z,22.76
2018-04-18T08:49:11.826Z,22.91
2018-04-18T08:50:11.802Z,23.04
2018-04-18T08:51:11.788Z,23.26
2018-04-18T08:52:11.846Z,23.36
2018-04-18T08:53:11.745Z,23.45
2018-04-18T08:54:11.729Z,23.66
2018-04-18T08:55:11.709Z,23.79
2018-04-18T08:56:11.714Z,24.11
2018-04-18T08:57:11.671Z,24.28
2018-04-18T08:58:11.652Z,24.55
2018-04-18T08:59:11.635Z,24.70
2018-04-18T09:00:11.622Z,24.81
2018-04-18T09:01:11.596Z,24.93
2018-04-18T09:02:11.633Z,25.08
2018-04-18T09:03:11.555Z,25.23
2018-04-18T09:04:11.548Z,25.41
2018-04-18T09:05:11.520Z,25.56
2018-04-18T09:06:11.501Z,25.75
2018-04-18T09:07:11.491Z,26.03
2018-04-18T09:08:11.472Z,26.24
2018-04-18T09:09:11.458Z,26.45
2018-04-18T09:10:11.431Z,26.70
2018-04-18T09:11:11.436Z,27.16
2018-04-18T09:12:11.400Z,27.23
2018-04-18T09:13:11.381Z,27.27
2018-04-18T09:14:11.360Z,27.27
2018-04-18T09:15:11.344Z,27.22
2018-04-18T09:16:11.332Z,27.26
2018-04-18T09:17:11.314Z,27.63
2018-04-18T09:18:11.352Z,27.87
2018-04-18T09:19:11.267Z,27.93
2018-04-18T09:20:11.255Z,28.09
2018-04-18T09:21:11.243Z,28.28
2018-04-18T09:22:11.218Z,28.28
2018-04-18T09:23:11.204Z,28.15
2018-04-18T09:24:11.183Z,27.80
2018-04-18T09:25:11.217Z,27.70
2018-04-18T09:26:11.154Z,27.79
2018-04-18T09:27:11.136Z,27.76
2018-04-18T09:28:11.130Z,27.76
2018-04-18T09:29:11.102Z,27.93
2018-04-18T09:30:11.083Z,27.98
2018-04-18T09:31:11.082Z,28.27
2018-04-18T09:32:11.049Z,28.27
2018-04-18T09:33:11.031Z,28.40
2018-04-18T09:34:11.030Z,28.43
2018-04-18T09:35:11.040Z,28.20
2018-04-18T09:36:12.459Z,28.19
2018-04-18T09:37:11.015Z,28.05
2018-04-18T09:38:11.019Z,27.95
2018-04-18T09:39:11.016Z,27.93
2018-04-18T09:40:11.017Z,27.82
2018-04-18T09:41:11.021Z,27.79
2018-04-18T09:42:11.017Z,27.41
2018-04-18T09:43:10.994Z,27.25
2018-04-18T09:44:10.982Z,26.95
2018-04-18T09:45:10.919Z,26.85
2018-04-18T09:46:10.830Z,26.89
2018-04-18T09:47:10.822Z,26.80
2018-04-18T09:48:10.801Z,26.70
2018-04-18T09:49:10.781Z,26.56
2018-04-18T09:50:10.780Z,26.46
2018-04-18T09:51:10.750Z,26.42
2018-04-18T09:52:10.735Z,26.39
2018-04-18T09:53:10.729Z,26.21
2018-04-18T09:54:10.702Z,26.23
2018-04-18T09:55:38.323Z,26.21
2018-04-18T09:56:10.674Z,26.07
2018-04-18T09:57:11.555Z,26.23
2018-04-18T09:58:10.646Z,26.07
2018-04-18T09:59:10.635Z,26.00
2018-04-18T10:00:10.610Z,26.01
2018-04-18T10:01:10.615Z,25.96
2018-04-18T10:02:10.588Z,26.03
2018-04-18T10:03:10.689Z,26.07
2018-04-18T10:04:10.549Z,26.15
2018-04-18T10:05:10.541Z,26.15
2018-04-18T10:06:10.525Z,25.96
2018-04-18T10:07:10.513Z,25.98
2018-04-18T10:08:10.526Z,26.03
2018-04-18T10:09:10.478Z,25.98
2018-04-18T10:10:10.480Z,26.00
2018-04-18T10:11:10.454Z,26.03
2018-04-18T10:12:10.486Z,25.85
2018-04-18T10:13:10.472Z,25.74
2018-04-18T10:14:10.408Z,25.83
2018-04-18T10:15:10.393Z,25.75
2018-04-18T10:16:10.384Z,25.68
2018-04-18T10:17:10.366Z,25.64
2018-04-18T10:18:10.524Z,25.59
2018-04-18T10:19:10.337Z,25.59
2018-04-18T10:20:10.319Z,25.51
2018-04-18T10:21:10.305Z,25.46
2018-04-18T10:22:10.289Z,25.41
2018-04-18T10:23:10.276Z,25.49
2018-04-18T10:24:10.266Z,25.43
2018-04-18T10:25:10.247Z,25.49
2018-04-18T10:26:10.239Z,25.48
2018-04-18T10:27:10.220Z,25.48
2018-04-18T10:28:10.204Z,25.45
2018-04-18T10:29:10.200Z,25.41
2018-04-18T10:30:10.175Z,25.46
2018-04-18T10:31:10.159Z,25.38
2018-04-18T10:32:10.149Z,25.43
2018-04-18T10:33:10.132Z,25.31
2018-04-18T10:34:10.119Z,25.28
2018-04-18T10:35:10.116Z,25.26
2018-04-18T10:36:10.088Z,25.34
2018-04-18T10:37:10.078Z,25.33
2018-04-18T10:38:10.118Z,25.41
2018-04-18T10:39:10.091Z,25.34
2018-04-18T10:40:10.033Z,25.51
2018-04-18T10:41:10.027Z,25.58
2018-04-18T10:42:10.003Z,25.58
2018-04-18T10:43:09.992Z,25.61
2018-04-18T10:44:09.973Z,25.56
2018-04-18T10:45:09.960Z,25.61
2018-04-18T10:46:09.953Z,25.63
2018-04-18T10:47:09.933Z,25.68
2018-04-18T10:48:09.923Z,25.70
2018-04-18T10:49:09.902Z,25.68
2018-04-18T10:50:09.895Z,25.64
2018-04-18T10:51:09.876Z,25.59
2018-04-18T10:52:09.864Z,25.66
2018-04-18T10:53:09.851Z,25.59
2018-04-18T10:54:09.833Z,25.46
2018-04-18T10:55:09.820Z,25.49
2018-04-18T10:56:09.804Z,25.49
2018-04-18T10:57:09.791Z,25.40
2018-04-18T10:58:09.816Z,25.38
2018-04-18T10:59:09.765Z,25.43
2018-04-18T11:00:09.751Z,25.43
2018-04-18T11:01:09.735Z,25.28
2018-04-18T11:02:09.739Z,25.37
2018-04-18T11:03:09.708Z,25.33
2018-04-18T11:04:09.697Z,25.31
2018-04-18T11:05:09.681Z,25.37
2018-04-18T11:06:09.670Z,25.37
2018-04-18T11:07:09.655Z,25.48
2018-04-18T11:08:09.642Z,25.52
2018-04-18T11:09:09.634Z,25.53
2018-04-18T11:10:09.623Z,25.58
2018-04-18T11:11:09.647Z,25.58
2018-04-18T11:12:09.648Z,25.61
2018-04-18T11:13:09.581Z,25.61
2018-04-18T11:14:09.571Z,25.66
2018-04-18T11:15:09.555Z,25.59
2018-04-18T11:16:09.546Z,25.70
2018-04-18T11:17:09.533Z,25.67
2018-04-18T11:18:09.526Z,25.68
2018-04-18T11:19:09.513Z,25.64
2018-04-18T11:20:09.501Z,25.73
2018-04-18T11:21:09.490Z,25.66
2018-04-18T11:22:09.494Z,25.63
2018-04-18T11:23:09.466Z,25.64
2018-04-18T11:24:09.460Z,25.58
2018-04-18T11:25:09.452Z,25.55
2018-04-18T11:26:09.438Z,25.73
2018-04-18T11:27:09.431Z,25.78
2018-04-18T11:28:09.460Z,25.74
2018-04-18T11:29:09.413Z,25.90
2018-04-18T11:30:09.409Z,26.12
2018-04-18T11:31:09.399Z,26.08
2018-04-18T11:32:09.393Z,26.19
2018-04-18T11:33:09.376Z,26.28
2018-04-18T11:34:09.374Z,26.27
2018-04-18T11:35:09.362Z,26.34
2018-04-18T11:36:09.353Z,26.30
2018-04-18T11:37:09.350Z,26.39
2018-04-18T11:38:09.337Z,26.42
2018-04-18T11:39:09.437Z,26.28
2018-04-18T11:40:09.317Z,26.24
2018-04-18T11:41:09.312Z,26.24
2018-04-18T11:42:09.303Z,26.30
2018-04-18T11:43:09.298Z,26.24
2018-04-18T11:44:09.285Z,26.23
2018-04-18T11:45:09.283Z,26.10
2018-04-18T11:46:09.288Z,26.11
2018-04-18T11:47:09.261Z,26.21
2018-04-18T11:48:09.254Z,26.16
2018-04-18T11:49:09.245Z,26.21
2018-04-18T11:50:09.231Z,26.24
2018-04-18T11:51:09.252Z,26.26
2018-04-18T11:52:09.217Z,26.27
2018-04-18T11:53:09.209Z,26.30
2018-04-18T11:54:09.199Z,26.21
2018-04-18T11:55:09.186Z,26.26
2018-04-18T11:56:44.883Z,26.26
2018-04-18T11:57:09.164Z,26.28
2018-04-18T11:58:09.159Z,26.26
2018-04-18T11:59:09.168Z,26.24
2018-04-18T12:00:09.150Z,26.33
2018-04-18T12:01:09.172Z,26.31
2018-04-18T12:02:09.151Z,26.27
2018-04-18T12:03:09.157Z,26.27
2018-04-18T12:04:09.188Z,26.34
2018-04-18T12:05:09.203Z,26.41
2018-04-18T12:06:09.151Z,26.39
2018-04-18T12:07:09.157Z,26.45
2018-04-18T12:08:09.151Z,26.51
2018-04-18T12:09:09.177Z,26.45
2018-04-18T12:10:09.113Z,26.56
2018-04-18T12:11:10.110Z,26.51
2018-04-18T12:12:09.123Z,26.57
2018-04-18T12:13:09.065Z,26.53
2018-04-18T12:14:09.051Z,26.53
2018-04-18T12:15:08.960Z,26.45
2018-04-18T12:16:08.952Z,26.43
2018-04-18T12:17:08.937Z,26.42
2018-04-18T12:18:08.931Z,26.39
2018-04-18T12:19:08.911Z,26.42
2018-04-18T12:20:08.916Z,26.43
2018-04-18T12:21:08.887Z,26.31
2018-04-18T12:22:08.875Z,26.23
2018-04-18T12:23:08.872Z,26.26
2018-04-18T12:24:08.849Z,26.24
2018-04-18T12:25:08.840Z,26.16
2018-04-18T12:26:08.842Z,26.16
2018-04-18T12:27:08.854Z,26.24
2018-04-18T12:28:08.797Z,26.24
2018-04-18T12:29:08.784Z,26.34
2018-04-18T12:30:08.775Z,26.33
2018-04-18T12:31:08.760Z,26.38
2018-04-18T12:32:09.139Z,26.39
2018-04-18T12:33:08.777Z,26.27
2018-04-18T12:34:08.724Z,26.20
2018-04-18T12:35:08.708Z,26.26
2018-04-18T12:36:08.692Z,26.20
2018-04-18T12:37:08.688Z,26.21
2018-04-18T12:38:08.665Z,26.16
2018-04-18T12:39:08.651Z,26.10
2018-04-18T12:40:08.639Z,25.95
2018-04-18T12:41:08.622Z,26.11
2018-04-18T12:42:08.636Z,26.07
2018-04-18T12:43:08.594Z,25.98
2018-04-18T12:44:08.581Z,26.07
2018-04-18T12:45:08.574Z,25.93
2018-04-18T12:46:08.563Z,25.98
2018-04-18T12:47:08.541Z,26.07
2018-04-18T12:48:08.525Z,26.15
2018-04-18T12:49:08.515Z,26.20
2018-04-18T12:50:08.496Z,26.08
2018-04-18T12:51:08.488Z,26.10
2018-04-18T12:52:08.470Z,26.21
2018-04-18T12:53:08.456Z,26.24
2018-04-18T12:54:08.445Z,26.30
2018-04-18T12:55:08.429Z,26.30
2018-04-18T12:56:08.410Z,26.38